Lime Ridge, WI

11:30 AM CDT on May 29, 2015 (GMT -0500)
Volk | | Change Station
CLOSE
Current Station
Airport
Location: Volk,
Elevation: 909 ft
Nearby Weather Stations

Elev 909 ft 43.94 °N, 90.25 °W | Updated 32 minutes ago

Overcast
Overcast
72 °F
Feels Like 72 °F
N
8
Wind Variable Wind from SSW

Today
High -- | Low -- °F
--% Chance of Precip.
Yesterday
High -- | Low -- °F
Precip. -- in
5:24 AM 8:32 PM
Waxing Gibbous, 84% visible
Pressure 29.95 in
Visibility 10.0 miles
Clouds Few 1700 ft
Mostly Cloudy 9000 ft
Overcast 20000 ft
Dew Point 72 °F
Humidity 100%
Rainfall 0.05 in
Snow Depth Not available.
UV 3 out of 12
Pollen 4.30 out of 12
Air Quality Not available.
Flu Activity Sporadic
METAR KVOK 291558Z 20007KT 10SM FEW017 BKN090 OVC200 22/22 A2995 RMK AO2A SLP142

More Conditions Fewer Conditions

Pressure 29.95 in
Visibility 10.0 miles
Clouds Few 1700 ft
Mostly Cloudy 9000 ft
Overcast 20000 ft
Dew Point 72 °F
Humidity 100%
Rainfall 0.05 in
Snow Depth Not available.
UV 3 out of 12
Pollen 4.30 out of 12
Air Quality Not available.
Flu Activity Sporadic
METAR KVOK 291558Z 20007KT 10SM FEW017 BKN090 OVC200 22/22 A2995 RMK AO2A SLP142

More Conditions Fewer Conditions

Nowcast | as of 11:08 am CDT on May 29, 2015

Scattered showers and thunderstorms will continue to develop over southern Wisconsin late this morning and early afternoon. The leading edge of the scattered showers and thunderstorms extended from around Monroe...to Milton to near East Troy...and were moving north at 25 mph. Brief heavy rainfall are likely with the showers and thunderstorms. Keep one eye on the sky this afternoon for approaching thunderstorms...and be ready to seek shelter.

×

10-Day Weather Forecast

Almanac

Astronomy

May. 29, 2015 Rise Set
Actual Time
Civil Twilight
Nautical Twilight
Astronomical Twilight
Moon
Length of Visible Light
Length of Day
Tomorrow will be .
, % of the Moon is Illuminated

Today's Extremes

State Highs State Lows

Community

WunderPhotos

Upload Photos

1,825,301 photos uploaded!

WunderBlogs® & News

Nearby

Air Quality

  Air Quality AQ Index Pollutant
Not available.

Snow Depth

Station Depth Elevation

Earthquake Activity

City Distance Mag. Time & Date
Minimum magnitude displayed is 2.5.

Coastal Water Temperatures

Place Temperature

Stations

Nearby Weather Stations

Station Location Temp. Windchill Dew Point Humidity Wind Precip. Elev Updated Type